sensor_id;sensor_type;location;lat;lon;timestamp;pressure;altitude;pressure_sealevel;temperature;humidity
48555;BME280;34336;48.270;16.716;2023-04-02T00:07:32;109325.25;;;18.16;65.91
48555;BME280;34336;48.270;16.716;2023-04-02T00:09:59;109325.25;;;18.16;65.95
48555;BME280;34336;48.270;16.716;2023-04-02T00:12:25;109325.25;;;18.16;65.78
48555;BME280;34336;48.270;16.716;2023-04-02T00:14:53;109325.25;;;18.16;66.04
48555;BME280;34336;48.270;16.716;2023-04-02T00:17:21;109325.25;;;18.16;66.01
48555;BME280;34336;48.270;16.716;2023-04-02T00:19:59;109325.25;;;18.16;65.43
48555;BME280;34336;48.270;16.716;2023-04-02T00:22:29;109325.25;;;18.16;65.27
48555;BME280;34336;48.270;16.716;2023-04-02T00:24:58;109325.25;;;18.16;65.25
48555;BME280;34336;48.270;16.716;2023-04-02T00:27:25;109325.25;;;18.16;65.01
48555;BME280;34336;48.270;16.716;2023-04-02T00:29:53;109325.25;;;18.16;65.15
48555;BME280;34336;48.270;16.716;2023-04-02T00:32:23;109325.25;;;18.16;64.94
48555;BME280;34336;48.270;16.716;2023-04-02T00:34:50;109325.25;;;18.16;64.78
48555;BME280;34336;48.270;16.716;2023-04-02T00:37:18;109325.25;;;18.16;64.80
48555;BME280;34336;48.270;16.716;2023-04-02T00:40:23;109325.25;;;18.16;64.48
48555;BME280;34336;48.270;16.716;2023-04-02T00:42:43;109325.25;;;18.16;64.24
48555;BME280;34336;48.270;16.716;2023-04-02T00:45:23;109325.25;;;18.16;64.42
48555;BME280;34336;48.270;16.716;2023-04-02T00:47:51;109325.25;;;18.16;64.44
48555;BME280;34336;48.270;16.716;2023-04-02T00:50:20;109325.25;;;18.16;64.51
48555;BME280;34336;48.270;16.716;2023-04-02T00:52:49;109325.25;;;18.16;64.79
48555;BME280;34336;48.270;16.716;2023-04-02T00:55:21;109325.25;;;18.16;64.46
48555;BME280;34336;48.270;16.716;2023-04-02T00:57:49;109325.25;;;18.16;64.71
48555;BME280;34336;48.270;16.716;2023-04-02T01:05:33;109325.25;;;18.16;64.17
48555;BME280;34336;48.270;16.716;2023-04-02T01:08:20;109325.25;;;18.16;63.92
48555;BME280;34336;48.270;16.716;2023-04-02T01:11:00;109325.25;;;18.16;64.40
48555;BME280;34336;48.270;16.716;2023-04-02T01:13:36;109325.25;;;18.16;64.39
48555;BME280;34336;48.270;16.716;2023-04-02T01:18:44;109325.25;;;18.16;63.97
48555;BME280;34336;48.270;16.716;2023-04-02T01:21:23;109325.25;;;18.16;63.74
48555;BME280;34336;48.270;16.716;2023-04-02T01:24:00;109325.25;;;18.16;63.92
48555;BME280;34336;48.270;16.716;2023-04-02T01:26:32;109325.25;;;18.16;64.05
48555;BME280;34336;48.270;16.716;2023-04-02T01:31:30;109325.25;;;18.16;64.30
48555;BME280;34336;48.270;16.716;2023-04-02T01:33:59;109325.25;;;18.16;64.14
48555;BME280;34336;48.270;16.716;2023-04-02T01:36:38;109325.25;;;18.16;64.39
48555;BME280;34336;48.270;16.716;2023-04-02T01:41:45;109325.25;;;18.16;64.61
48555;BME280;34336;48.270;16.716;2023-04-02T01:47:03;109325.25;;;18.16;64.51
48555;BME280;34336;48.270;16.716;2023-04-02T01:49:35;109325.25;;;18.16;64.53
48555;BME280;34336;48.270;16.716;2023-04-02T01:52:02;109325.25;;;18.16;64.62
48555;BME280;34336;48.270;16.716;2023-04-02T01:54:31;109325.25;;;18.16;64.63
48555;BME280;34336;48.270;16.716;2023-04-02T01:56:59;109325.25;;;18.16;64.80
48555;BME280;34336;48.270;16.716;2023-04-02T01:59:26;109325.25;;;18.16;65.04
48555;BME280;34336;48.270;16.716;2023-04-02T02:04:25;109325.25;;;18.16;65.00
48555;BME280;34336;48.270;16.716;2023-04-02T02:06:52;109325.25;;;18.16;64.76
48555;BME280;34336;48.270;16.716;2023-04-02T02:09:22;109325.25;;;18.16;64.96
48555;BME280;34336;48.270;16.716;2023-04-02T02:11:51;109325.25;;;18.16;65.15
48555;BME280;34336;48.270;16.716;2023-04-02T02:14:19;109325.25;;;18.16;64.95
48555;BME280;34336;48.270;16.716;2023-04-02T02:16:47;109325.25;;;18.16;64.90
48555;BME280;34336;48.270;16.716;2023-04-02T02:19:37;109325.25;;;18.16;64.92
48555;BME280;34336;48.270;16.716;2023-04-02T02:24:47;109325.25;;;18.16;64.91
48555;BME280;34336;48.270;16.716;2023-04-02T02:32:23;109325.25;;;18.16;65.73
48555;BME280;34336;48.270;16.716;2023-04-02T02:37:39;109325.25;;;18.16;65.83
48555;BME280;34336;48.270;16.716;2023-04-02T02:40:11;109325.25;;;18.16;66.05
48555;BME280;34336;48.270;16.716;2023-04-02T02:42:41;109325.25;;;18.16;66.04
48555;BME280;34336;48.270;16.716;2023-04-02T02:45:14;109325.25;;;18.16;66.49
48555;BME280;34336;48.270;16.716;2023-04-02T02:47:41;109325.25;;;18.16;66.26
48555;BME280;34336;48.270;16.716;2023-04-02T02:50:14;109325.25;;;18.16;66.25
48555;BME280;34336;48.270;16.716;2023-04-02T02:52:49;109325.25;;;18.16;66.28
48555;BME280;34336;48.270;16.716;2023-04-02T02:55:20;109325.25;;;18.16;66.29
48555;BME280;34336;48.270;16.716;2023-04-02T02:58:01;109325.25;;;18.16;66.75
48555;BME280;34336;48.270;16.716;2023-04-02T03:00:36;109325.25;;;18.16;66.89
48555;BME280;34336;48.270;16.716;2023-04-02T03:03:05;109325.25;;;18.16;66.84
48555;BME280;34336;48.270;16.716;2023-04-02T03:05:33;109325.25;;;18.16;67.18
48555;BME280;34336;48.270;16.716;2023-04-02T03:08:10;109325.25;;;18.16;67.06
48555;BME280;34336;48.270;16.716;2023-04-02T03:13:45;109325.25;;;18.16;67.10
48555;BME280;34336;48.270;16.716;2023-04-02T03:16:23;109325.25;;;18.16;67.13
48555;BME280;34336;48.270;16.716;2023-04-02T03:29:50;109325.25;;;18.16;67.58
48555;BME280;34336;48.270;16.716;2023-04-02T03:32:22;109325.25;;;18.16;67.87
48555;BME280;34336;48.270;16.716;2023-04-02T03:40:54;109325.25;;;18.16;67.85
48555;BME280;34336;48.270;16.716;2023-04-02T03:43:15;109325.25;;;18.16;67.83
48555;BME280;34336;48.270;16.716;2023-04-02T03:45:47;109325.25;;;18.16;67.94
48555;BME280;34336;48.270;16.716;2023-04-02T03:51:06;109325.25;;;18.16;68.40
48555;BME280;34336;48.270;16.716;2023-04-02T03:53:33;109325.25;;;18.16;68.45
48555;BME280;34336;48.270;16.716;2023-04-02T03:56:00;109325.25;;;18.16;68.80
48555;BME280;34336;48.270;16.716;2023-04-02T03:58:41;109325.25;;;18.16;69.14
48555;BME280;34336;48.270;16.716;2023-04-02T04:03:46;109325.25;;;18.16;69.13
48555;BME280;34336;48.270;16.716;2023-04-02T04:06:25;109325.25;;;18.16;69.49
48555;BME280;34336;48.270;16.716;2023-04-02T04:09:05;109325.25;;;18.16;69.22
48555;BME280;34336;48.270;16.716;2023-04-02T04:11:33;109325.25;;;18.16;69.56
48555;BME280;34336;48.270;16.716;2023-04-02T04:14:08;109325.25;;;18.16;69.90
48555;BME280;34336;48.270;16.716;2023-04-02T04:16:44;109325.25;;;18.16;70.13
48555;BME280;34336;48.270;16.716;2023-04-02T04:21:49;109325.25;;;18.16;69.92
48555;BME280;34336;48.270;16.716;2023-04-02T04:24:24;109325.25;;;18.16;70.11
48555;BME280;34336;48.270;16.716;2023-04-02T04:27:05;109325.25;;;18.16;70.53
48555;BME280;34336;48.270;16.716;2023-04-02T04:29:40;109325.25;;;18.16;70.31
48555;BME280;34336;48.270;16.716;2023-04-02T04:35:20;109325.25;;;18.16;70.26
48555;BME280;34336;48.270;16.716;2023-04-02T04:37:49;109325.25;;;18.16;70.83
48555;BME280;34336;48.270;16.716;2023-04-02T04:40:28;109325.25;;;18.16;70.73
48555;BME280;34336;48.270;16.716;2023-04-02T04:42:59;109325.25;;;18.16;71.06
48555;BME280;34336;48.270;16.716;2023-04-02T04:45:42;109325.25;;;18.16;71.28
48555;BME280;34336;48.270;16.716;2023-04-02T04:50:54;109325.25;;;18.16;71.19
48555;BME280;34336;48.270;16.716;2023-04-02T04:53:25;109325.25;;;18.16;71.35
48555;BME280;34336;48.270;16.716;2023-04-02T04:55:54;109325.25;;;18.16;71.44
48555;BME280;34336;48.270;16.716;2023-04-02T04:58:44;109325.25;;;18.16;71.52
48555;BME280;34336;48.270;16.716;2023-04-02T05:01:23;109325.25;;;18.16;71.83
48555;BME280;34336;48.270;16.716;2023-04-02T05:03:56;109325.25;;;18.16;71.46
48555;BME280;34336;48.270;16.716;2023-04-02T05:09:02;109325.25;;;18.16;72.14
48555;BME280;34336;48.270;16.716;2023-04-02T05:11:42;109325.25;;;18.16;71.88
48555;BME280;34336;48.270;16.716;2023-04-02T05:14:55;109325.25;;;18.16;71.96
48555;BME280;34336;48.270;16.716;2023-04-02T05:17:03;109325.25;;;18.16;72.05
48555;BME280;34336;48.270;16.716;2023-04-02T05:19:36;109325.25;;;18.16;71.72
48555;BME280;34336;48.270;16.716;2023-04-02T05:22:19;109325.25;;;18.16;71.53
48555;BME280;34336;48.270;16.716;2023-04-02T05:24:50;109325.25;;;18.16;71.11
48555;BME280;34336;48.270;16.716;2023-04-02T05:27:25;109325.25;;;18.16;70.77
48555;BME280;34336;48.270;16.716;2023-04-02T05:29:56;109325.25;;;18.16;70.62
48555;BME280;34336;48.270;16.716;2023-04-02T05:32:27;109325.25;;;18.16;70.63
48555;BME280;34336;48.270;16.716;2023-04-02T05:34:56;109325.25;;;18.16;70.32
48555;BME280;34336;48.270;16.716;2023-04-02T05:37:25;109325.25;;;18.16;70.53
48555;BME280;34336;48.270;16.716;2023-04-02T05:39:54;109325.25;;;18.16;70.32
48555;BME280;34336;48.270;16.716;2023-04-02T05:42:24;109325.25;;;18.16;70.62
48555;BME280;34336;48.270;16.716;2023-04-02T05:45:02;109325.25;;;18.16;70.71
48555;BME280;34336;48.270;16.716;2023-04-02T05:47:32;109325.25;;;18.16;71.22
48555;BME280;34336;48.270;16.716;2023-04-02T05:52:41;109325.25;;;18.16;71.34
48555;BME280;34336;48.270;16.716;2023-04-02T05:57:42;109325.25;;;18.16;70.90
48555;BME280;34336;48.270;16.716;2023-04-02T06:02:59;109325.25;;;18.16;71.12
48555;BME280;34336;48.270;16.716;2023-04-02T06:05:38;109325.25;;;18.16;71.12
48555;BME280;34336;48.270;16.716;2023-04-02T06:10:34;109325.25;;;18.16;72.12
48555;BME280;34336;48.270;16.716;2023-04-02T06:13:05;109325.25;;;18.16;72.54
48555;BME280;34336;48.270;16.716;2023-04-02T06:15:36;109325.25;;;18.16;72.59
48555;BME280;34336;48.270;16.716;2023-04-02T06:18:15;109325.25;;;18.16;72.68
48555;BME280;34336;48.270;16.716;2023-04-02T06:20:45;109325.25;;;18.16;73.57
48555;BME280;34336;48.270;16.716;2023-04-02T06:23:16;109325.25;;;18.16;73.72
48555;BME280;34336;48.270;16.716;2023-04-02T06:25:48;109325.25;;;18.16;73.43
48555;BME280;34336;48.270;16.716;2023-04-02T06:28:20;109325.25;;;18.16;73.20
48555;BME280;34336;48.270;16.716;2023-04-02T06:30:53;109325.25;;;18.16;73.46
48555;BME280;34336;48.270;16.716;2023-04-02T06:33:23;109325.25;;;18.16;73.87
48555;BME280;34336;48.270;16.716;2023-04-02T06:35:50;109325.25;;;18.16;73.99
48555;BME280;34336;48.270;16.716;2023-04-02T06:38:26;109325.25;;;18.16;73.93
48555;BME280;34336;48.270;16.716;2023-04-02T06:40:56;109325.25;;;18.16;74.04
48555;BME280;34336;48.270;16.716;2023-04-02T06:43:44;109325.25;;;18.16;73.98
48555;BME280;34336;48.270;16.716;2023-04-02T06:46:18;109325.25;;;18.16;74.20
48555;BME280;34336;48.270;16.716;2023-04-02T06:49:18;109325.25;;;18.16;74.60
48555;BME280;34336;48.270;16.716;2023-04-02T06:51:53;109325.25;;;18.16;74.56
48555;BME280;34336;48.270;16.716;2023-04-02T06:54:21;109325.25;;;18.16;74.94
48555;BME280;34336;48.270;16.716;2023-04-02T06:56:54;109325.25;;;18.16;74.29
48555;BME280;34336;48.270;16.716;2023-04-02T06:59:31;109325.25;;;18.16;74.08
48555;BME280;34336;48.270;16.716;2023-04-02T07:02:00;109325.25;;;18.16;74.10
48555;BME280;34336;48.270;16.716;2023-04-02T07:04:32;109325.25;;;18.16;73.77
48555;BME280;34336;48.270;16.716;2023-04-02T07:07:00;109325.25;;;18.16;73.20
48555;BME280;34336;48.270;16.716;2023-04-02T07:09:30;109325.25;;;18.16;73.04
48555;BME280;34336;48.270;16.716;2023-04-02T07:12:00;109325.25;;;18.16;71.87
48555;BME280;34336;48.270;16.716;2023-04-02T07:14:29;109325.25;;;18.16;71.70
48555;BME280;34336;48.270;16.716;2023-04-02T07:16:56;109325.25;;;18.16;70.77
48555;BME280;34336;48.270;16.716;2023-04-02T07:19:23;109325.25;;;18.16;70.32
48555;BME280;34336;48.270;16.716;2023-04-02T07:21:54;109325.25;;;18.16;69.43
48555;BME280;34336;48.270;16.716;2023-04-02T07:24:22;109325.25;;;18.16;68.30
48555;BME280;34336;48.270;16.716;2023-04-02T07:26:49;109325.25;;;18.16;67.26
48555;BME280;34336;48.270;16.716;2023-04-02T07:29:16;109325.25;;;18.16;67.11
48555;BME280;34336;48.270;16.716;2023-04-02T07:31:43;109325.25;;;18.16;66.81
48555;BME280;34336;48.270;16.716;2023-04-02T07:34:09;109325.25;;;18.16;66.78
48555;BME280;34336;48.270;16.716;2023-04-02T07:36:36;109325.25;;;18.16;66.26
48555;BME280;34336;48.270;16.716;2023-04-02T07:39:02;109325.25;;;18.16;65.89
48555;BME280;34336;48.270;16.716;2023-04-02T07:41:29;109325.25;;;18.16;65.51
48555;BME280;34336;48.270;16.716;2023-04-02T07:43:56;109325.25;;;18.16;64.23
48555;BME280;34336;48.270;16.716;2023-04-02T07:46:22;109325.25;;;18.16;64.00
48555;BME280;34336;48.270;16.716;2023-04-02T07:48:51;109325.25;;;18.16;63.93
48555;BME280;34336;48.270;16.716;2023-04-02T07:51:18;109325.25;;;18.16;64.46
48555;BME280;34336;48.270;16.716;2023-04-02T07:53:46;109325.25;;;18.16;64.30
48555;BME280;34336;48.270;16.716;2023-04-02T07:56:18;109325.25;;;18.16;65.07
48555;BME280;34336;48.270;16.716;2023-04-02T07:58:45;109325.25;;;18.16;64.59
48555;BME280;34336;48.270;16.716;2023-04-02T08:01:16;109325.25;;;18.16;64.34
48555;BME280;34336;48.270;16.716;2023-04-02T08:03:43;109325.25;;;18.16;64.27
48555;BME280;34336;48.270;16.716;2023-04-02T08:06:10;109325.25;;;18.16;64.91
48555;BME280;34336;48.270;16.716;2023-04-02T08:08:37;109325.25;;;18.16;63.77
48555;BME280;34336;48.270;16.716;2023-04-02T08:11:04;109325.25;;;18.16;63.40
48555;BME280;34336;48.270;16.716;2023-04-02T08:13:30;109325.25;;;18.16;63.29
48555;BME280;34336;48.270;16.716;2023-04-02T08:15:57;109325.25;;;18.16;63.23
48555;BME280;34336;48.270;16.716;2023-04-02T08:18:24;109325.25;;;18.16;63.36
48555;BME280;34336;48.270;16.716;2023-04-02T08:20:51;109325.25;;;18.16;64.27
48555;BME280;34336;48.270;16.716;2023-04-02T08:23:19;109325.25;;;18.16;64.22
48555;BME280;34336;48.270;16.716;2023-04-02T08:25:47;109325.25;;;18.16;63.50
48555;BME280;34336;48.270;16.716;2023-04-02T08:28:16;109325.25;;;18.16;63.24
48555;BME280;34336;48.270;16.716;2023-04-02T08:30:42;109325.25;;;18.16;63.11
48555;BME280;34336;48.270;16.716;2023-04-02T08:33:09;109325.25;;;18.16;62.72
48555;BME280;34336;48.270;16.716;2023-04-02T08:35:36;109325.25;;;18.16;63.21
48555;BME280;34336;48.270;16.716;2023-04-02T08:38:04;109325.25;;;18.16;63.39
48555;BME280;34336;48.270;16.716;2023-04-02T08:40:32;109325.25;;;18.16;63.43
48555;BME280;34336;48.270;16.716;2023-04-02T08:48:28;109325.25;;;18.16;60.99
48555;BME280;34336;48.270;16.716;2023-04-02T08:50:56;109325.25;;;18.16;60.47
48555;BME280;34336;48.270;16.716;2023-04-02T08:53:25;109325.25;;;18.16;59.00
48555;BME280;34336;48.270;16.716;2023-04-02T08:55:59;109325.25;;;18.16;60.07
48555;BME280;34336;48.270;16.716;2023-04-02T09:00:59;109325.25;;;18.16;58.51
48555;BME280;34336;48.270;16.716;2023-04-02T09:03:29;109325.25;;;18.16;59.18
48555;BME280;34336;48.270;16.716;2023-04-02T09:05:57;109325.25;;;18.16;60.05
48555;BME280;34336;48.270;16.716;2023-04-02T09:08:25;109325.25;;;18.16;60.88
48555;BME280;34336;48.270;16.716;2023-04-02T09:13:23;109325.25;;;18.16;60.91
48555;BME280;34336;48.270;16.716;2023-04-02T09:15:52;109325.25;;;18.16;61.71
48555;BME280;34336;48.270;16.716;2023-04-02T09:18:21;109325.25;;;18.16;64.06
48555;BME280;34336;48.270;16.716;2023-04-02T09:20:48;109325.25;;;18.16;62.31
48555;BME280;34336;48.270;16.716;2023-04-02T09:23:16;109325.25;;;18.16;61.55
48555;BME280;34336;48.270;16.716;2023-04-02T09:25:45;109325.25;;;18.16;61.38
48555;BME280;34336;48.270;16.716;2023-04-02T09:28:28;109325.25;;;18.16;64.36
48555;BME280;34336;48.270;16.716;2023-04-02T09:30:59;109325.25;;;18.16;64.48
48555;BME280;34336;48.270;16.716;2023-04-02T09:36:16;109325.25;;;18.16;65.46
48555;BME280;34336;48.270;16.716;2023-04-02T09:39:00;109325.25;;;18.16;65.35
48555;BME280;34336;48.270;16.716;2023-04-02T09:41:32;109325.25;;;18.16;65.27
48555;BME280;34336;48.270;16.716;2023-04-02T09:46:57;109325.25;;;18.16;66.13
48555;BME280;34336;48.270;16.716;2023-04-02T09:49:29;109325.25;;;18.16;66.69
48555;BME280;34336;48.270;16.716;2023-04-02T09:54:42;109325.25;;;18.16;67.44
48555;BME280;34336;48.270;16.716;2023-04-02T09:57:21;109325.25;;;18.16;67.25
48555;BME280;34336;48.270;16.716;2023-04-02T10:00:10;109325.25;;;18.16;69.13
48555;BME280;34336;48.270;16.716;2023-04-02T10:05:32;109325.25;;;18.16;66.94
48555;BME280;34336;48.270;16.716;2023-04-02T10:08:15;109325.25;;;18.16;66.14
48555;BME280;34336;48.270;16.716;2023-04-02T10:10:45;109325.25;;;18.16;66.54
48555;BME280;34336;48.270;16.716;2023-04-02T10:18:14;109325.25;;;18.16;68.08
48555;BME280;34336;48.270;16.716;2023-04-02T10:20:44;109325.25;;;18.16;68.87
48555;BME280;34336;48.270;16.716;2023-04-02T10:23:17;109325.25;;;18.16;70.53
48555;BME280;34336;48.270;16.716;2023-04-02T10:25:56;109325.25;;;18.16;69.74
48555;BME280;34336;48.270;16.716;2023-04-02T10:31:14;109325.25;;;18.16;68.18
48555;BME280;34336;48.270;16.716;2023-04-02T10:33:54;109325.25;;;18.16;68.67
48555;BME280;34336;48.270;16.716;2023-04-02T10:39:02;109325.25;;;18.16;68.30
48555;BME280;34336;48.270;16.716;2023-04-02T10:41:39;109325.25;;;18.16;68.80
48555;BME280;34336;48.270;16.716;2023-04-02T10:47:12;109325.25;;;18.16;69.79
48555;BME280;34336;48.270;16.716;2023-04-02T10:54:52;109325.25;;;18.16;72.62
48555;BME280;34336;48.270;16.716;2023-04-02T11:02:33;109325.25;;;18.16;71.61
48555;BME280;34336;48.270;16.716;2023-04-02T11:05:06;109325.25;;;18.16;73.55
48555;BME280;34336;48.270;16.716;2023-04-02T11:07:48;109325.25;;;18.16;74.83
48555;BME280;34336;48.270;16.716;2023-04-02T11:10:17;109325.25;;;18.16;77.83
48555;BME280;34336;48.270;16.716;2023-04-02T11:12:47;109325.25;;;18.16;77.19
48555;BME280;34336;48.270;16.716;2023-04-02T11:15:15;109325.25;;;18.16;78.64
48555;BME280;34336;48.270;16.716;2023-04-02T11:17:43;109325.25;;;18.16;79.34
48555;BME280;34336;48.270;16.716;2023-04-02T11:23:15;109325.25;;;18.16;82.83
48555;BME280;34336;48.270;16.716;2023-04-02T11:25:42;109325.25;;;18.16;74.74
48555;BME280;34336;48.270;16.716;2023-04-02T11:30:52;109325.25;;;18.16;79.91
48555;BME280;34336;48.270;16.716;2023-04-02T11:33:23;109325.25;;;18.16;81.70
48555;BME280;34336;48.270;16.716;2023-04-02T11:36:01;109325.25;;;18.16;82.00
48555;BME280;34336;48.270;16.716;2023-04-02T11:41:10;109325.25;;;18.16;88.17
48555;BME280;34336;48.270;16.716;2023-04-02T11:46:49;109325.25;;;18.16;88.12
48555;BME280;34336;48.270;16.716;2023-04-02T11:48:50;109325.25;;;18.16;89.56
48555;BME280;34336;48.270;16.716;2023-04-02T11:53:48;109325.25;;;18.16;91.41
48555;BME280;34336;48.270;16.716;2023-04-02T11:59:08;109325.25;;;18.16;90.48
48555;BME280;34336;48.270;16.716;2023-04-02T12:01:55;109325.25;;;18.16;91.07
48555;BME280;34336;48.270;16.716;2023-04-02T12:09:52;109325.25;;;18.16;89.15
48555;BME280;34336;48.270;16.716;2023-04-02T12:14:53;109325.25;;;18.16;83.35
48555;BME280;34336;48.270;16.716;2023-04-02T12:17:24;109325.25;;;18.16;81.32
48555;BME280;34336;48.270;16.716;2023-04-02T12:19:54;109325.25;;;18.16;82.39
48555;BME280;34336;48.270;16.716;2023-04-02T12:22:22;109325.25;;;18.16;82.51
48555;BME280;34336;48.270;16.716;2023-04-02T12:24:50;109325.25;;;18.16;83.71
48555;BME280;34336;48.270;16.716;2023-04-02T12:27:19;109325.25;;;18.16;83.37
48555;BME280;34336;48.270;16.716;2023-04-02T12:29:49;109325.25;;;18.16;85.04
48555;BME280;34336;48.270;16.716;2023-04-02T12:34:50;109325.25;;;18.16;86.53
48555;BME280;34336;48.270;16.716;2023-04-02T12:37:19;109325.25;;;18.16;85.55
48555;BME280;34336;48.270;16.716;2023-04-02T12:39:59;109325.25;;;18.16;86.19
48555;BME280;34336;48.270;16.716;2023-04-02T12:44:53;109325.25;;;18.16;86.93
48555;BME280;34336;48.270;16.716;2023-04-02T12:47:20;109325.25;;;18.16;84.79
48555;BME280;34336;48.270;16.716;2023-04-02T12:49:47;109325.25;;;18.16;83.63
48555;BME280;34336;48.270;16.716;2023-04-02T12:52:14;109325.25;;;18.16;83.56
48555;BME280;34336;48.270;16.716;2023-04-02T12:54:48;109325.25;;;18.16;83.85
48555;BME280;34336;48.270;16.716;2023-04-02T12:57:20;109325.25;;;18.16;80.39
48555;BME280;34336;48.270;16.716;2023-04-02T12:59:48;109325.25;;;18.16;81.09
48555;BME280;34336;48.270;16.716;2023-04-02T13:02:19;109325.25;;;18.16;79.59
48555;BME280;34336;48.270;16.716;2023-04-02T13:04:50;109325.25;;;18.16;77.01
48555;BME280;34336;48.270;16.716;2023-04-02T13:07:18;109325.25;;;18.16;76.95
48555;BME280;34336;48.270;16.716;2023-04-02T13:09:53;109325.25;;;18.16;76.87
48555;BME280;34336;48.270;16.716;2023-04-02T13:12:30;109325.25;;;18.16;75.84
48555;BME280;34336;48.270;16.716;2023-04-02T13:14:58;109325.25;;;18.16;75.15
48555;BME280;34336;48.270;16.716;2023-04-02T13:17:39;109325.25;;;18.16;73.51
48555;BME280;34336;48.270;16.716;2023-04-02T13:25:48;109325.25;;;18.16;71.90
48555;BME280;34336;48.270;16.716;2023-04-02T13:28:14;109325.25;;;18.16;68.71
48555;BME280;34336;48.270;16.716;2023-04-02T13:30:41;109325.25;;;18.16;69.64
48555;BME280;34336;48.270;16.716;2023-04-02T13:33:08;109325.25;;;18.16;68.54
48555;BME280;34336;48.270;16.716;2023-04-02T13:35:34;109325.25;;;18.16;66.57
48555;BME280;34336;48.270;16.716;2023-04-02T13:38:01;109325.25;;;18.16;66.46
48555;BME280;34336;48.270;16.716;2023-04-02T13:40:29;109325.25;;;18.16;67.42
48555;BME280;34336;48.270;16.716;2023-04-02T13:42:56;109325.25;;;18.16;66.43
48555;BME280;34336;48.270;16.716;2023-04-02T13:45:23;109325.25;;;18.16;65.93
48555;BME280;34336;48.270;16.716;2023-04-02T13:47:51;109325.25;;;18.16;65.11
48555;BME280;34336;48.270;16.716;2023-04-02T13:50:21;109325.25;;;18.16;65.78
48555;BME280;34336;48.270;16.716;2023-04-02T13:52:49;109325.25;;;18.16;64.67
48555;BME280;34336;48.270;16.716;2023-04-02T13:55:16;109325.25;;;18.16;63.56
48555;BME280;34336;48.270;16.716;2023-04-02T13:57:44;109325.25;;;18.16;62.02
48555;BME280;34336;48.270;16.716;2023-04-02T14:00:11;109325.25;;;18.16;62.67
48555;BME280;34336;48.270;16.716;2023-04-02T14:02:39;109325.25;;;18.16;62.31
48555;BME280;34336;48.270;16.716;2023-04-02T14:18:24;109325.25;;;18.16;61.89
48555;BME280;34336;48.270;16.716;2023-04-02T14:21:10;109325.25;;;18.16;63.35
48555;BME280;34336;48.270;16.716;2023-04-02T14:26:16;109325.25;;;18.16;63.98
48555;BME280;34336;48.270;16.716;2023-04-02T14:31:33;109325.25;;;18.16;64.49
48555;BME280;34336;48.270;16.716;2023-04-02T14:34:26;109325.25;;;18.16;62.16
48555;BME280;34336;48.270;16.716;2023-04-02T14:36:54;109325.25;;;18.16;63.31
48555;BME280;34336;48.270;16.716;2023-04-02T14:42:09;109325.25;;;18.16;64.38
48555;BME280;34336;48.270;16.716;2023-04-02T14:44:40;109325.25;;;18.16;65.25
48555;BME280;34336;48.270;16.716;2023-04-02T14:47:21;109325.25;;;18.16;64.09
48555;BME280;34336;48.270;16.716;2023-04-02T14:49:51;109325.25;;;18.16;64.72
48555;BME280;34336;48.270;16.716;2023-04-02T14:52:20;109325.25;;;18.16;64.59
48555;BME280;34336;48.270;16.716;2023-04-02T14:55:08;109325.25;;;18.16;63.98
48555;BME280;34336;48.270;16.716;2023-04-02T14:57:44;109325.25;;;18.16;63.56
48555;BME280;34336;48.270;16.716;2023-04-02T15:03:17;109325.25;;;18.16;63.40
48555;BME280;34336;48.270;16.716;2023-04-02T15:05:54;109325.25;;;18.16;62.69
48555;BME280;34336;48.270;16.716;2023-04-02T15:08:27;109325.25;;;18.16;61.00
48555;BME280;34336;48.270;16.716;2023-04-02T15:16:13;109325.25;;;18.16;62.54
48555;BME280;34336;48.270;16.716;2023-04-02T15:18:41;109325.25;;;18.16;62.61
48555;BME280;34336;48.270;16.716;2023-04-02T15:26:23;109325.25;;;18.16;61.31
48555;BME280;34336;48.270;16.716;2023-04-02T15:29:00;109325.25;;;18.16;61.90
48555;BME280;34336;48.270;16.716;2023-04-02T15:31:29;109325.25;;;18.16;61.99
48555;BME280;34336;48.270;16.716;2023-04-02T15:36:32;109325.25;;;18.16;64.03
48555;BME280;34336;48.270;16.716;2023-04-02T15:41:39;109325.25;;;18.16;63.29
48555;BME280;34336;48.270;16.716;2023-04-02T15:44:13;109325.25;;;18.16;63.13
48555;BME280;34336;48.270;16.716;2023-04-02T15:59:39;109325.25;;;18.16;61.66
48555;BME280;34336;48.270;16.716;2023-04-02T16:04:58;109325.25;;;18.16;60.97
48555;BME280;34336;48.270;16.716;2023-04-02T16:10:34;109325.25;;;18.16;61.23
48555;BME280;34336;48.270;16.716;2023-04-02T16:13:18;109325.25;;;18.16;60.31
48555;BME280;34336;48.270;16.716;2023-04-02T16:15:54;109325.25;;;18.16;60.87
48555;BME280;34336;48.270;16.716;2023-04-02T16:18:42;109325.25;;;18.16;61.29
48555;BME280;34336;48.270;16.716;2023-04-02T16:21:11;109325.25;;;18.16;60.62
48555;BME280;34336;48.270;16.716;2023-04-02T16:23:39;109325.25;;;18.16;61.38
48555;BME280;34336;48.270;16.716;2023-04-02T16:28:48;109325.25;;;18.16;61.87
48555;BME280;34336;48.270;16.716;2023-04-02T16:31:23;109325.25;;;18.16;61.92
48555;BME280;34336;48.270;16.716;2023-04-02T16:33:55;109325.25;;;18.16;61.31
48555;BME280;34336;48.270;16.716;2023-04-02T16:41:45;109325.25;;;18.16;62.98
48555;BME280;34336;48.270;16.716;2023-04-02T16:44:20;109325.25;;;18.16;61.91
48555;BME280;34336;48.270;16.716;2023-04-02T16:52:12;109325.25;;;18.16;62.65
48555;BME280;34336;48.270;16.716;2023-04-02T17:05:00;109325.25;;;18.16;63.19
48555;BME280;34336;48.270;16.716;2023-04-02T17:12:44;109325.25;;;18.16;63.38